Cheikh El Mokrani — C6WD5 — position and weather

sailwx.info

Track history (hours):
 
Tides and Currents Weather Stations Pressure Air Temp Water Temp Dewpoint Dewpoint Depression Visibility Wind Speed Wind Dir Waves Ship Positions

Cheikh El Mokrani

Last reported at 2016-Aug-24 09:33 UTC. Time now 2016-Aug-24 10:21 UTC.
Position N 43°27' E 004°51'.

Length 220 m; draft 9.7 m.

Type: Ship (hazmat cat D). MMSI: 309979000.

Date/timePositionNaut miles runAvg speedWind from/ knotsBaromVisibWave heightAir tempDewpointWater temp
2016-Aug-24 09:33N 43°27' E 004°51'0 0.0
2016-Aug-24 08:33N 43°27' E 004°51'0 0.0
2016-Aug-24 07:33N 43°27' E 004°51'0 0.0
2016-Aug-24 06:33N 43°27' E 004°51'0 0.0
2016-Aug-24 04:33N 43°27' E 004°51'0 0.0
2016-Aug-24 03:33N 43°27' E 004°51'0 0.0
2016-Aug-24 02:33N 43°27' E 004°51'0 0.0
2016-Aug-24 01:33N 43°27' E 004°51'0 0.0
2016-Aug-24 00:34N 43°27' E 004°51'0 0.0
2016-Aug-23 23:33N 43°27' E 004°51'0 0.0
2016-Aug-23 22:33N 43°27' E 004°51'0 0.0
2016-Aug-23 21:33N 43°27' E 004°51'0 0.0
2016-Aug-23 20:33N 43°27' E 004°51'0 0.0
2016-Aug-23 19:33N 43°27' E 004°51'0 0.0
2016-Aug-23 18:33N 43°27' E 004°51'0 0.0
2016-Aug-23 17:34N 43°27' E 004°51'0 0.0
2016-Aug-23 16:33N 43°27' E 004°51'0 0.0
2016-Aug-23 15:33N 43°27' E 004°51'0 0.0
2016-Aug-23 14:33N 43°27' E 004°51'0 0.0
2016-Aug-23 13:33N 43°27' E 004°51'0 0.0
2016-Aug-23 12:33N 43°27' E 004°51'0 0.0
2016-Aug-23 11:33N 43°27' E 004°51'0 0.0
2016-Aug-23 10:33N 43°27' E 004°51'0 0.0
2016-Aug-23 09:33N 43°27' E 004°51'0 0.0
2016-Aug-23 08:33N 43°27' E 004°51'0 0.2
2016-Aug-23 07:33N 43°27' E 004°51'5 5.3
2016-Aug-23 06:33N 43°23' E 004°57'7 7.0
2016-Aug-23 05:33N 43°17' E 005°01'6 6.0
2016-Aug-23 04:34N 43°11' E 005°02'4 4.1
2016-Aug-23 03:33N 43°07' E 004°59'5 4.6
2016-Aug-23 02:33N 43°04' E 004°55'7 6.6
2016-Aug-23 01:33N 42°59' E 004°49'7 6.6
2016-Aug-23 00:33N 42°53' E 004°44'13 6.4
2016-Aug-22 22:33N 42°43' E 004°34'39 7.2
2016-Aug-22 17:03N 42°11' E 004°02'6 8.3
2016-Aug-22 16:18N 42°06' E 003°57'19 8.9
2016-Aug-22 14:11N 41°50' E 003°43'2810.5
2016-Aug-22 11:31N 41°28' E 003°21'1310.4
2016-Aug-22 10:15N 41°17' E 003°10'1010.2
2016-Aug-22 09:16N 41°09' E 003°03'710.1
2016-Aug-22 08:33N 41°03' E 002°57'1110.9
2016-Aug-22 07:33N 40°55' E 002°48'1312.9
2016-Aug-22 06:33N 40°44' E 002°38'1313.4
2016-Aug-22 05:33N 40°33' E 002°28'1313.4
2016-Aug-22 04:33N 40°22' E 002°18'1413.6
2016-Aug-22 03:33N 40°11' E 002°08'1414.0
2016-Aug-22 02:33N 40°00' E 001°56'1414.0
2016-Aug-22 01:33N 39°49' E 001°45'1513.8
2016-Aug-22 00:26N 39°36' E 001°34'1213.9
2016-Aug-21 23:33N 39°26' E 001°25'1413.7
2016-Aug-21 22:33N 39°15' E 001°14'2713.5
2016-Aug-21 20:31N 38°52' E 000°56'1413.6
2016-Aug-21 19:31N 38°38' E 000°51'166 8.7
2016-Aug-21 00:24N 35°59' W 000°09'2 1.0
2016-Aug-20 22:21N 35°59' W 000°11'4 2.1
2016-Aug-20 20:22N 35°55' W 000°10'2 1.1
2016-Aug-20 18:21N 35°56' W 000°12'1 1.3
2016-Aug-20 17:34N 35°56' W 000°13'3 3.0
2016-Aug-20 16:33N 35°54' W 000°10'2 1.5
2016-Aug-20 15:33N 35°53' W 000°08'1 1.5
2016-Aug-20 14:33N 35°54' W 000°10'6 5.8
2016-Aug-20 13:33N 35°49' W 000°14'0 0.5
2016-Aug-20 12:33N 35°49' W 000°14'  
2016-Aug-17 17:17N 35°51' W 000°13'0 0.0
2016-Aug-17 15:23N 35°51' W 000°13'0 0.0
2016-Aug-15 17:23N 35°51' W 000°14'0 0.0
2016-Aug-15 14:23N 35°51' W 000°14'0 0.1
2016-Aug-15 13:33N 35°51' W 000°14'3 2.8
2016-Aug-15 12:26N 35°54' W 000°14'1 0.5
2016-Aug-15 11:25N 35°54' W 000°14'47 3.7
2016-Aug-14 22:30N 36°40' E 000°04'1111.7
2016-Aug-14 21:33N 36°50' E 000°10'1212.2
2016-Aug-14 20:33N 37°01' E 000°14'1514.7
2016-Aug-14 19:33N 37°15' E 000°19'4514.9
2016-Aug-14 16:32N 37°58' E 000°36'1614.8
2016-Aug-14 15:28N 38°14' E 000°42'1415.2
2016-Aug-14 14:33N 38°27' E 000°47'1615.6
2016-Aug-14 13:31N 38°42' E 000°53'3115.6
2016-Aug-14 11:32N 39°11' E 001°09'1515.8
2016-Aug-14 10:33N 39°23' E 001°21'  
Track history (hours):
 
Tides and Currents Weather Stations Pressure Air Temp Water Temp Dewpoint Dewpoint Depression Visibility Wind Speed Wind Dir Waves Ship Positions

Cheikh El Mokrani

Last reported at 2016-Aug-24 09:33 UTC. Time now 2016-Aug-24 10:21 UTC.
Position N 43°27' E 004°51'.

Length 220 m; draft 9.7 m.

Type: Ship (hazmat cat D). MMSI: 309979000.

Date/timePositionNaut miles runAvg speedWind from/ knotsBaromVisibWave heightAir tempDewpointWater temp
2016-Aug-24 09:33N 43°27' E 004°51'0 0.0
2016-Aug-24 08:33N 43°27' E 004°51'0 0.0
2016-Aug-24 07:33N 43°27' E 004°51'0 0.0
2016-Aug-24 06:33N 43°27' E 004°51'0 0.0
2016-Aug-24 04:33N 43°27' E 004°51'0 0.0
2016-Aug-24 03:33N 43°27' E 004°51'0 0.0
2016-Aug-24 02:33N 43°27' E 004°51'0 0.0
2016-Aug-24 01:33N 43°27' E 004°51'0 0.0
2016-Aug-24 00:34N 43°27' E 004°51'0 0.0
2016-Aug-23 23:33N 43°27' E 004°51'0 0.0
2016-Aug-23 22:33N 43°27' E 004°51'0 0.0
2016-Aug-23 21:33N 43°27' E 004°51'0 0.0
2016-Aug-23 20:33N 43°27' E 004°51'0 0.0
2016-Aug-23 19:33N 43°27' E 004°51'0 0.0
2016-Aug-23 18:33N 43°27' E 004°51'0 0.0
2016-Aug-23 17:34N 43°27' E 004°51'0 0.0
2016-Aug-23 16:33N 43°27' E 004°51'0 0.0
2016-Aug-23 15:33N 43°27' E 004°51'0 0.0
2016-Aug-23 14:33N 43°27' E 004°51'0 0.0
2016-Aug-23 13:33N 43°27' E 004°51'0 0.0
2016-Aug-23 12:33N 43°27' E 004°51'0 0.0
2016-Aug-23 11:33N 43°27' E 004°51'0 0.0
2016-Aug-23 10:33N 43°27' E 004°51'0 0.0
2016-Aug-23 09:33N 43°27' E 004°51'0 0.0
2016-Aug-23 08:33N 43°27' E 004°51'0 0.2
2016-Aug-23 07:33N 43°27' E 004°51'5 5.3
2016-Aug-23 06:33N 43°23' E 004°57'7 7.0
2016-Aug-23 05:33N 43°17' E 005°01'6 6.0
2016-Aug-23 04:34N 43°11' E 005°02'4 4.1
2016-Aug-23 03:33N 43°07' E 004°59'5 4.6
2016-Aug-23 02:33N 43°04' E 004°55'7 6.6
2016-Aug-23 01:33N 42°59' E 004°49'7 6.6
2016-Aug-23 00:33N 42°53' E 004°44'13 6.4
2016-Aug-22 22:33N 42°43' E 004°34'39 7.2
2016-Aug-22 17:03N 42°11' E 004°02'6 8.3
2016-Aug-22 16:18N 42°06' E 003°57'19 8.9
2016-Aug-22 14:11N 41°50' E 003°43'2810.5
2016-Aug-22 11:31N 41°28' E 003°21'1310.4
2016-Aug-22 10:15N 41°17' E 003°10'1010.2
2016-Aug-22 09:16N 41°09' E 003°03'710.1
2016-Aug-22 08:33N 41°03' E 002°57'1110.9
2016-Aug-22 07:33N 40°55' E 002°48'1312.9
2016-Aug-22 06:33N 40°44' E 002°38'1313.4
2016-Aug-22 05:33N 40°33' E 002°28'1313.4
2016-Aug-22 04:33N 40°22' E 002°18'1413.6
2016-Aug-22 03:33N 40°11' E 002°08'1414.0
2016-Aug-22 02:33N 40°00' E 001°56'1414.0
2016-Aug-22 01:33N 39°49' E 001°45'1513.8
2016-Aug-22 00:26N 39°36' E 001°34'1213.9
2016-Aug-21 23:33N 39°26' E 001°25'1413.7
2016-Aug-21 22:33N 39°15' E 001°14'2713.5
2016-Aug-21 20:31N 38°52' E 000°56'1413.6
2016-Aug-21 19:31N 38°38' E 000°51'166 8.7
2016-Aug-21 00:24N 35°59' W 000°09'2 1.0
2016-Aug-20 22:21N 35°59' W 000°11'4 2.1
2016-Aug-20 20:22N 35°55' W 000°10'2 1.1
2016-Aug-20 18:21N 35°56' W 000°12'1 1.3
2016-Aug-20 17:34N 35°56' W 000°13'3 3.0
2016-Aug-20 16:33N 35°54' W 000°10'2 1.5
2016-Aug-20 15:33N 35°53' W 000°08'1 1.5
2016-Aug-20 14:33N 35°54' W 000°10'6 5.8
2016-Aug-20 13:33N 35°49' W 000°14'0 0.5
2016-Aug-20 12:33N 35°49' W 000°14'  
2016-Aug-17 17:17N 35°51' W 000°13'0 0.0
2016-Aug-17 15:23N 35°51' W 000°13'0 0.0
2016-Aug-15 17:23N 35°51' W 000°14'0 0.0
2016-Aug-15 14:23N 35°51' W 000°14'0 0.1
2016-Aug-15 13:33N 35°51' W 000°14'3 2.8
2016-Aug-15 12:26N 35°54' W 000°14'1 0.5
2016-Aug-15 11:25N 35°54' W 000°14'47 3.7
2016-Aug-14 22:30N 36°40' E 000°04'1111.7
2016-Aug-14 21:33N 36°50' E 000°10'1212.2
2016-Aug-14 20:33N 37°01' E 000°14'1514.7
2016-Aug-14 19:33N 37°15' E 000°19'4514.9
2016-Aug-14 16:32N 37°58' E 000°36'1614.8
2016-Aug-14 15:28N 38°14' E 000°42'1415.2
2016-Aug-14 14:33N 38°27' E 000°47'1615.6
2016-Aug-14 13:31N 38°42' E 000°53'3115.6
2016-Aug-14 11:32N 39°11' E 001°09'1515.8
2016-Aug-14 10:33N 39°23' E 001°21'  

Dump ship's entire track history